Montevideo, MN (56265)

10:22 AM CDT on August 31, 2015 (GMT -0500)
Near Chinhinta Park | | Change Station
CLOSE
Current Station
Personal Weather Station
Location: Montevideo, MN
Elevation: 1024 ft
Nearby Weather Stations

Elev 1024 ft 44.94 °N, 95.72 °W | Updated 1 second ago

Clear
Clear
74.2 °F
Feels Like 75 °F
N
2.0
Wind Variable Wind from South
Gusts 3.0 mph

Today
High -- | Low -- °F
--% Chance of Precip.
Yesterday
High -- | Low -- °F
Precip. -- in
6:43 AM 8:02 PM
Waning Gibbous, 95% visible
Pressure 29.84 in
Visibility 7.0 miles
Clouds Clear
Heat Index 75 °F
Dew Point 68 °F
Humidity 80%
Rainfall 0.00 in
Snow Depth Not available.
UV 4 out of 12
Pollen 10.40 out of 12
Air Quality Not available.
Flu Activity Not available.
METAR KMVE 311454Z AUTO 21012G19KT 7SM CLR 23/22 A2984 RMK AO2
Pressure 29.84 in
Visibility 7.0 miles
Clouds Clear
Heat Index 75 °F
Dew Point 68 °F
Humidity 80%
Rainfall 0.00 in
Snow Depth Not available.
UV 4 out of 12
Pollen 10.40 out of 12
Air Quality Not available.
Flu Activity Not available.
METAR KMVE 311454Z AUTO 21012G19KT 7SM CLR 23/22 A2984 RMK AO2

10-Day Weather Forecast

×

Almanac

Astronomy

Aug. 31, 2015 Rise Set
Actual Time
Civil Twilight
Nautical Twilight
Astronomical Twilight
Moon
Length of Visible Light
Length of Day
Tomorrow will be .
, % of the Moon is Illuminated

Today's Extremes

State Highs State Lows

Community

WunderPhotos

Upload Photos

1,851,281 photos uploaded!

WunderBlogs® & News

Nearby

Air Quality

  Air Quality AQ Index Pollutant
Not available.

Snow Depth

Station Depth Elevation

Earthquake Activity

City Distance Mag. Time & Date
Minimum magnitude displayed is 2.5.

Coastal Water Temperatures

Place Temperature

Stations

Nearby Weather Stations

Station Location Temp. Windchill Dew Point Humidity Wind Precip. Elev Updated Type